Time;durP1;ratioP1;P1;durP2;ratioP2;P2;SDS_P1;SDS_P2;PMS_P1;PMS_P2;Temp;Humidity;BMP_temperature;BMP_pressure;BME280_temperature;BME280_humidity;BME280_pressure;Samples;Min_cycle;Max_cycle;Signal;HPM_P1;HPM_P2
2021/04/11 00:01:00;;;;;;;1.90;1.80;;;12.90;91.90;;;;;;5069410;22;20225;-67
2021/04/11 00:03:28;;;;;;;2.00;1.80;;;12.90;92.20;;;;;;5046353;28;20174;-67
2021/04/11 00:05:55;;;;;;;2.40;1.80;;;12.80;92.30;;;;;;5035103;28;20194;-67
2021/04/11 00:08:22;;;;;;;4.20;2.00;;;12.80;92.30;;;;;;5046612;28;20527;-67
2021/04/11 00:10:51;;;;;;;2.23;1.83;;;12.80;92.70;;;;;;5042202;28;20864;-67
2021/04/11 00:13:34;;;;;;;2.27;1.80;;;12.70;92.80;;;;;;5058172;28;20837;-68
2021/04/11 00:16:00;;;;;;;2.10;1.80;;;12.70;93.00;;;;;;5070224;28;20484;-67
2021/04/11 00:18:25;;;;;;;2.07;1.83;;;12.60;93.30;;;;;;5054358;28;20443;-67
2021/04/11 00:20:52;;;;;;;2.07;1.90;;;12.60;93.40;;;;;;5057706;28;20824;-67
2021/04/11 00:23:19;;;;;;;4.10;2.83;;;12.50;93.60;;;;;;5057802;28;20180;-67
2021/04/11 00:25:45;;;;;;;2.77;2.13;;;12.50;93.60;;;;;;5066240;28;20933;-67
2021/04/11 00:28:13;;;;;;;2.77;2.20;;;12.40;94.00;;;;;;5067106;28;20430;-67
2021/04/11 00:30:39;;;;;;;4.70;2.33;;;12.40;94.10;;;;;;5058828;28;20193;-67
2021/04/11 00:33:06;;;;;;;2.90;2.07;;;12.30;94.40;;;;;;5056196;28;20793;-67
2021/04/11 00:35:32;;;;;;;2.30;2.10;;;12.30;94.60;;;;;;5051251;28;20424;-67
2021/04/11 00:37:58;;;;;;;3.00;2.63;;;12.20;94.90;;;;;;5064768;28;20521;-67
2021/04/11 00:40:28;;;;;;;3.10;1.90;;;12.20;94.90;;;;;;5063444;28;20862;-67
2021/04/11 00:43:07;;;;;;;2.40;2.03;;;12.20;95.00;;;;;;5053918;28;20432;-67
2021/04/11 00:46:09;;;;;;;4.20;2.43;;;12.10;95.20;;;;;;5051912;28;20507;-67
2021/04/11 00:48:35;;;;;;;5.00;2.50;;;12.10;95.60;;;;;;5051466;28;20478;-67
2021/04/11 00:51:05;;;;;;;2.37;2.17;;;12.00;95.90;;;;;;5060898;28;20447;-67
2021/04/11 00:53:31;;;;;;;4.73;2.40;;;12.00;97.60;;;;;;5061770;28;20510;-67
2021/04/11 00:55:57;;;;;;;3.83;2.30;;;12.00;95.70;;;;;;5065910;28;20523;-67
2021/04/11 00:58:25;;;;;;;1.70;1.60;;;12.00;96.10;;;;;;5054049;28;20177;-67
2021/04/11 01:00:50;;;;;;;2.67;2.23;;;12.00;96.00;;;;;;5057323;28;20459;-67
2021/04/11 01:03:23;;;;;;;3.47;2.30;;;12.00;96.30;;;;;;5067385;28;20436;-67
2021/04/11 01:05:49;;;;;;;4.73;2.17;;;12.00;96.40;;;;;;5059832;28;20183;-67
2021/04/11 01:08:18;;;;;;;2.77;2.20;;;12.00;96.60;;;;;;5068343;28;20998;-67
2021/04/11 01:11:02;;;;;;;2.10;2.00;;;12.00;96.60;;;;;;5066875;28;20444;-67
2021/04/11 01:13:29;;;;;;;2.40;2.20;;;12.00;97.00;;;;;;5064520;28;20507;-67
2021/04/11 01:15:55;;;;;;;2.67;2.03;;;12.00;96.90;;;;;;5051164;28;20435;-67
2021/04/11 01:18:21;;;;;;;2.50;2.30;;;12.00;97.00;;;;;;5067770;28;20450;-67
2021/04/11 01:20:47;;;;;;;3.10;2.17;;;12.00;97.30;;;;;;5056111;28;20459;-67
2021/04/11 01:23:36;;;;;;;2.87;2.20;;;12.00;97.30;;;;;;5068865;28;20427;-67
2021/04/11 01:26:02;;;;;;;2.60;2.40;;;12.00;97.30;;;;;;5060651;28;20455;-67
2021/04/11 01:28:56;;;;;;;2.10;1.90;;;11.90;97.30;;;;;;5061078;28;20526;-67
2021/04/11 01:31:21;;;;;;;2.47;2.27;;;11.90;97.50;;;;;;5047967;28;20812;-67
2021/04/11 01:33:51;;;;;;;2.47;2.27;;;11.90;97.40;;;;;;5060029;28;20431;-67
2021/04/11 01:36:21;;;;;;;2.60;2.00;;;11.90;97.30;;;;;;5052694;28;20197;-67
2021/04/11 01:38:48;;;;;;;1.60;1.50;;;12.00;97.20;;;;;;5051148;28;20428;-67
2021/04/11 01:41:25;;;;;;;2.20;2.00;;;12.00;97.60;;;;;;5055511;28;20960;-67
2021/04/11 01:43:52;;;;;;;2.10;1.90;;;12.00;97.80;;;;;;5066215;28;20438;-67
2021/04/11 01:46:20;;;;;;;4.30;2.20;;;11.90;97.70;;;;;;5060005;28;20451;-67
2021/04/11 01:48:47;;;;;;;2.60;2.10;;;12.00;98.10;;;;;;5054093;28;20493;-67
2021/04/11 01:51:16;;;;;;;2.83;2.60;;;12.00;98.00;;;;;;5050716;28;20807;-67
2021/04/11 01:53:43;;;;;;;2.60;2.40;;;12.00;97.80;;;;;;5060580;28;20431;-67
2021/04/11 01:56:11;;;;;;;2.30;2.10;;;12.00;97.40;;;;;;5057968;28;20515;-67
2021/04/11 01:58:37;;;;;;;3.70;2.00;;;12.10;97.50;;;;;;5069834;28;20485;-67
2021/04/11 02:01:08;;;;;;;1.97;1.80;;;12.10;97.80;;;;;;5070299;28;20462;-67
2021/04/11 02:03:34;;;;;;;2.43;1.80;;;12.10;97.80;;;;;;5074443;28;20430;-67
2021/04/11 02:06:05;;;;;;;3.30;2.00;;;12.10;97.80;;;;;;5075256;28;20520;-67
2021/04/11 02:08:32;;;;;;;2.73;2.20;;;12.10;97.50;;;;;;5068476;28;20185;-67
2021/04/11 02:10:59;;;;;;;1.83;1.73;;;12.10;97.80;;;;;;5068262;28;20533;-67
2021/04/11 02:13:28;;;;;;;2.00;1.90;;;12.10;97.70;;;;;;5062288;28;20442;-67
2021/04/11 02:15:57;;;;;;;2.53;2.30;;;12.10;97.90;;;;;;5058489;28;20948;-67
2021/04/11 02:18:24;;;;;;;2.80;2.00;;;12.10;97.90;;;;;;5071795;28;20458;-67
2021/04/11 02:20:51;;;;;;;2.50;1.90;;;12.10;98.10;;;;;;5063102;28;20487;-67
2021/04/11 02:23:17;;;;;;;2.43;2.23;;;12.10;99.10;;;;;;5067101;28;20459;-67
2021/04/11 02:25:48;;;;;;;3.90;2.03;;;12.10;99.90;;;;;;5058777;28;20811;-67
2021/04/11 02:28:15;;;;;;;1.90;1.80;;;12.10;99.90;;;;;;5063579;28;20443;-67
2021/04/11 02:30:50;;;;;;;2.73;1.40;;;12.10;99.90;;;;;;5059286;28;20450;-67
2021/04/11 02:33:16;;;;;;;1.97;1.77;;;12.10;99.90;;;;;;5069727;28;20431;-67
2021/04/11 02:35:42;;;;;;;2.30;2.10;;;12.10;99.90;;;;;;5076497;28;20510;-67
2021/04/11 02:38:09;;;;;;;2.13;1.93;;;12.10;99.90;;;;;;5071624;28;20522;-67
2021/04/11 02:40:39;;;;;;;3.20;2.47;;;12.00;99.90;;;;;;5063284;28;20197;-67
2021/04/11 02:43:07;;;;;;;3.17;2.70;;;12.00;99.90;;;;;;5072179;28;21282;-67
2021/04/11 02:45:39;;;;;;;3.00;2.17;;;12.00;99.90;;;;;;5057035;28;20435;-67
2021/04/11 02:48:11;;;;;;;2.73;2.50;;;12.00;99.90;;;;;;5069643;28;20784;-67
2021/04/11 02:50:39;;;;;;;2.57;2.37;;;12.00;99.90;;;;;;5071454;28;20434;-67
2021/04/11 02:53:14;;;;;;;1.70;1.60;;;11.90;99.90;;;;;;5061379;28;20840;-67
2021/04/11 02:55:42;;;;;;;3.40;2.20;;;11.80;99.90;;;;;;5072376;28;20504;-67
2021/04/11 02:58:13;;;;;;;2.70;2.50;;;11.80;99.90;;;;;;5064080;28;20420;-67
2021/04/11 03:01:01;;;;;;;2.83;1.97;;;11.90;99.90;;;;;;5066100;28;20841;-67
2021/04/11 03:03:27;;;;;;;2.80;2.27;;;11.90;99.90;;;;;;5073887;28;20437;-67
2021/04/11 03:05:56;;;;;;;2.90;2.43;;;12.00;99.90;;;;;;5070616;28;20493;-67
2021/04/11 03:08:28;;;;;;;3.63;2.33;;;11.90;99.90;;;;;;5074130;28;20434;-67
2021/04/11 03:11:07;;;;;;;2.50;2.30;;;11.90;99.90;;;;;;5063006;28;20450;-67
2021/04/11 03:13:34;;;;;;;5.93;1.80;;;11.80;99.90;;;;;;5052605;28;20427;-67
2021/04/11 03:16:00;;;;;;;2.70;1.93;;;11.70;99.90;;;;;;5058972;28;20486;-67
2021/04/11 03:18:26;;;;;;;2.03;1.70;;;11.60;99.90;;;;;;5061047;28;20923;-67
2021/04/11 03:20:52;;;;;;;1.80;1.70;;;11.60;99.90;;;;;;5064692;28;20246;-67
2021/04/11 03:23:20;;;;;;;3.07;2.77;;;11.60;99.90;;;;;;5053379;28;20182;-67
2021/04/11 03:25:46;;;;;;;6.83;4.00;;;11.60;99.90;;;;;;5064235;28;20522;-67
2021/04/11 03:28:42;;;;;;;2.37;2.17;;;11.50;99.90;;;;;;5071955;28;20522;-67
2021/04/11 03:31:29;;;;;;;4.13;2.63;;;11.40;99.90;;;;;;5067329;28;20197;-67
2021/04/11 03:33:59;;;;;;;4.03;2.43;;;11.40;99.90;;;;;;5067448;28;20456;-67
2021/04/11 03:36:25;;;;;;;2.00;1.90;;;11.40;99.90;;;;;;5060149;28;20585;-67
2021/04/11 03:38:52;;;;;;;2.60;2.40;;;11.40;99.90;;;;;;5054791;28;20497;-69
2021/04/11 03:41:19;;;;;;;2.10;2.00;;;11.40;99.90;;;;;;5066087;28;20457;-67
2021/04/11 03:43:48;;;;;;;2.53;2.20;;;11.40;99.90;;;;;;5061352;28;20428;-67
2021/04/11 03:46:22;;;;;;;2.63;2.43;;;11.30;99.90;;;;;;5054474;28;20821;-67
2021/04/11 03:48:57;;;;;;;3.00;2.13;;;11.30;99.90;;;;;;5054054;28;20423;-67
2021/04/11 03:51:27;;;;;;;2.83;2.10;;;11.20;99.90;;;;;;5065672;28;20443;-67
2021/04/11 03:54:30;;;;;;;3.33;2.53;;;11.20;99.90;;;;;;5055492;28;20428;-67
2021/04/11 03:57:07;;;;;;;2.97;2.67;;;11.20;99.90;;;;;;5057275;28;20435;-67
2021/04/11 03:59:54;;;;;;;3.60;2.40;;;11.20;99.90;;;;;;5055762;28;20454;-67
2021/04/11 04:02:23;;;;;;;3.13;2.20;;;11.20;99.90;;;;;;5051149;28;20463;-67
2021/04/11 04:04:51;;;;;;;3.27;2.97;;;11.20;99.90;;;;;;5069454;28;20498;-67
2021/04/11 04:07:21;;;;;;;2.87;2.03;;;11.20;99.90;;;;;;5057995;28;20451;-67
2021/04/11 04:10:01;;;;;;;2.93;2.07;;;11.30;99.90;;;;;;5051819;28;20432;-67
2021/04/11 04:12:31;;;;;;;3.43;2.33;;;11.20;99.90;;;;;;5052999;28;20471;-67
2021/04/11 04:15:10;;;;;;;2.50;2.10;;;11.30;99.90;;;;;;5056120;28;20481;-67
2021/04/11 04:18:02;;;;;;;2.83;2.50;;;11.30;99.90;;;;;;5059411;28;20511;-67
2021/04/11 04:20:40;;;;;;;4.43;3.10;;;11.40;99.90;;;;;;5037178;28;20450;-67
2021/04/11 04:23:30;;;;;;;6.47;5.57;;;11.40;99.90;;;;;;5051946;28;20443;-67
2021/04/11 04:26:17;;;;;;;3.00;2.53;;;11.50;99.90;;;;;;5057990;28;20812;-67
2021/04/11 04:29:07;;;;;;;8.63;2.40;;;11.50;99.90;;;;;;5052796;28;20440;-67
2021/04/11 04:31:42;;;;;;;2.77;2.57;;;11.50;99.90;;;;;;5064085;28;20454;-67
2021/04/11 04:34:41;;;;;;;3.13;2.63;;;11.50;99.90;;;;;;5064512;28;20466;-67
2021/04/11 04:37:33;;;;;;;2.67;2.47;;;11.50;99.90;;;;;;5069357;28;20427;-67
2021/04/11 04:40:03;;;;;;;4.83;2.67;;;11.50;99.90;;;;;;5054589;28;20778;-67
2021/04/11 04:42:50;;;;;;;2.90;2.43;;;11.50;99.90;;;;;;5064220;28;20432;-67
2021/04/11 04:45:20;;;;;;;2.80;2.50;;;11.50;99.90;;;;;;5057931;28;20430;-67
2021/04/11 04:47:59;;;;;;;6.53;2.90;;;11.50;99.90;;;;;;5064591;28;20978;-67
2021/04/11 04:50:37;;;;;;;3.70;2.70;;;11.50;99.90;;;;;;5050944;28;20824;-67
2021/04/11 04:53:38;;;;;;;3.27;2.97;;;11.40;99.90;;;;;;5057739;28;20435;-67
2021/04/11 04:56:07;;;;;;;9.40;2.90;;;11.40;99.90;;;;;;5054111;28;20801;-67
2021/04/11 04:58:43;;;;;;;7.30;2.47;;;11.50;99.90;;;;;;5064271;28;20480;-66
2021/04/11 05:01:21;;;;;;;2.87;2.50;;;11.40;99.90;;;;;;5063611;28;20466;-66
2021/04/11 05:03:49;;;;;;;3.03;2.73;;;11.50;99.90;;;;;;5062888;28;20454;-67
2021/04/11 05:06:19;;;;;;;2.90;2.40;;;11.40;99.90;;;;;;5056068;28;20521;-67
2021/04/11 05:08:48;;;;;;;3.20;2.57;;;11.40;99.90;;;;;;5066886;28;20465;-67
2021/04/11 05:11:17;;;;;;;4.77;2.47;;;11.40;99.90;;;;;;5056265;28;20444;-67
2021/04/11 05:14:09;;;;;;;2.43;2.23;;;11.40;99.90;;;;;;5056995;28;20434;-67
2021/04/11 05:16:48;;;;;;;3.77;2.47;;;11.40;99.90;;;;;;5059066;28;20431;-66
2021/04/11 05:19:21;;;;;;;3.27;2.97;;;11.50;99.90;;;;;;5052445;28;20440;-67
2021/04/11 05:21:57;;;;;;;7.60;2.63;;;11.50;99.90;;;;;;5066904;28;20457;-67
2021/04/11 05:24:28;;;;;;;5.50;2.90;;;11.50;99.90;;;;;;5063621;28;20430;-67
2021/04/11 05:27:08;;;;;;;3.80;3.00;;;11.60;99.90;;;;;;5054741;28;20464;-67
2021/04/11 05:29:57;;;;;;;2.47;2.10;;;11.70;99.90;;;;;;5064378;28;20844;-67
2021/04/11 05:32:23;;;;;;;5.20;3.47;;;11.70;99.90;;;;;;5061692;28;20450;-67
2021/04/11 05:34:50;;;;;;;3.80;2.50;;;11.70;99.90;;;;;;5056431;28;20428;-67
2021/04/11 05:37:45;;;;;;;3.20;2.40;;;11.80;99.90;;;;;;5055799;28;20435;-67
2021/04/11 05:40:17;;;;;;;3.50;3.17;;;11.90;99.90;;;;;;5060828;28;20426;-67
2021/04/11 05:43:00;;;;;;;2.73;2.10;;;11.90;99.90;;;;;;5064664;28;20501;-67
2021/04/11 05:45:37;;;;;;;3.10;2.10;;;12.00;99.90;;;;;;5060521;28;20485;-67
2021/04/11 05:48:25;;;;;;;3.33;2.00;;;12.00;99.90;;;;;;5053253;28;20444;-67
2021/04/11 05:51:09;;;;;;;2.73;2.10;;;12.00;99.90;;;;;;5059881;28;20451;-67
2021/04/11 05:53:41;;;;;;;9.53;2.67;;;12.00;99.90;;;;;;5064478;28;20435;-67
2021/04/11 05:56:12;;;;;;;2.73;2.47;;;12.10;99.90;;;;;;5054305;28;20431;-67
2021/04/11 05:58:42;;;;;;;3.10;2.33;;;12.10;99.90;;;;;;5059632;28;20431;-67
2021/04/11 06:01:13;;;;;;;3.87;3.07;;;12.20;99.90;;;;;;5056702;28;20467;-67
2021/04/11 06:03:45;;;;;;;3.77;3.20;;;12.30;99.90;;;;;;5059139;28;20443;-67
2021/04/11 06:06:24;;;;;;;3.83;2.13;;;12.30;99.90;;;;;;5062511;28;20482;-67
2021/04/11 06:08:57;;;;;;;3.20;1.93;;;12.40;99.90;;;;;;5051725;28;20432;-67
2021/04/11 06:11:55;;;;;;;3.57;2.50;;;12.40;99.90;;;;;;5066497;28;20454;-68
2021/04/11 06:14:28;;;;;;;2.53;2.33;;;12.50;99.90;;;;;;5056740;28;20522;-67
2021/04/11 06:16:54;;;;;;;3.30;3.00;;;12.50;99.90;;;;;;5058022;28;20603;-67
2021/04/11 06:19:21;;;;;;;4.53;3.37;;;12.40;99.90;;;;;;5055192;28;20439;-67
2021/04/11 06:21:51;;;;;;;2.80;2.53;;;12.40;99.90;;;;;;5064281;28;20980;-67
2021/04/11 06:24:38;;;;;;;2.83;2.63;;;12.50;99.90;;;;;;5061028;28;20438;-67
2021/04/11 06:27:10;;;;;;;2.30;2.10;;;12.50;99.90;;;;;;5059026;28;20458;-68
2021/04/11 06:29:47;;;;;;;6.60;3.50;;;12.60;99.90;;;;;;5049795;28;20797;-67
2021/04/11 06:32:13;;;;;;;6.50;2.67;;;12.80;99.90;;;;;;5053704;28;20470;-66
2021/04/11 06:34:46;;;;;;;3.20;2.67;;;13.10;99.90;;;;;;5055293;28;21017;-66
2021/04/11 06:37:16;;;;;;;3.90;2.10;;;13.30;99.90;;;;;;5066722;28;20430;-67
2021/04/11 06:39:45;;;;;;;3.20;2.93;;;13.70;99.90;;;;;;5063191;28;20431;-67
2021/04/11 06:42:40;;;;;;;3.07;2.70;;;13.90;99.90;;;;;;5054735;28;20453;-67
2021/04/11 06:45:18;;;;;;;3.40;3.10;;;14.20;99.90;;;;;;5031059;28;20450;-67
2021/04/11 06:48:11;;;;;;;3.47;2.97;;;14.30;99.90;;;;;;5056170;28;20502;-67
2021/04/11 06:50:50;;;;;;;2.57;2.20;;;14.30;99.90;;;;;;5067884;28;20446;-66
2021/04/11 06:53:42;;;;;;;4.23;2.73;;;14.40;99.90;;;;;;5057153;28;20427;-66
2021/04/11 06:56:50;;;;;;;3.07;2.87;;;14.80;99.90;;;;;;5066157;28;20423;-66
2021/04/11 06:59:41;;;;;;;3.27;2.80;;;14.90;99.90;;;;;;5053650;28;20979;-67
2021/04/11 07:02:28;;;;;;;5.20;2.67;;;15.00;99.60;;;;;;5060212;28;20827;-67
2021/04/11 07:05:13;;;;;;;3.33;2.57;;;15.00;99.40;;;;;;5073197;28;20521;-67
2021/04/11 07:07:38;;;;;;;3.33;2.50;;;15.00;99.50;;;;;;5056368;28;20566;-67
2021/04/11 07:10:16;;;;;;;2.30;2.10;;;15.10;99.30;;;;;;5067411;28;20510;-71
2021/04/11 07:13:20;;;;;;;3.07;2.70;;;15.00;99.30;;;;;;5068272;28;20476;-67
2021/04/11 07:15:49;;;;;;;3.00;2.80;;;15.20;98.70;;;;;;5054920;28;20851;-66
2021/04/11 07:18:36;;;;;;;3.83;2.80;;;15.20;98.60;;;;;;5061539;28;20423;-67
2021/04/11 07:21:20;;;;;;;4.93;2.27;;;15.30;98.50;;;;;;5072223;28;20442;-67
2021/04/11 07:24:06;;;;;;;5.13;3.00;;;15.30;98.30;;;;;;5072811;28;20423;-67
2021/04/11 07:27:20;;;;;;;2.27;2.07;;;15.40;98.50;;;;;;5067332;28;20463;-68
2021/04/11 07:30:00;;;;;;;2.10;1.90;;;15.60;97.80;;;;;;5041956;28;20546;-67
2021/04/11 07:32:59;;;;;;;2.27;2.07;;;15.60;96.50;;;;;;5051447;28;20440;-67
2021/04/11 07:35:34;;;;;;;2.43;2.20;;;15.60;96.30;;;;;;5065838;28;20423;-67
2021/04/11 07:38:29;;;;;;;2.53;2.33;;;15.50;95.50;;;;;;5072647;28;20449;-68
2021/04/11 07:41:06;;;;;;;1.87;1.70;;;15.60;95.90;;;;;;5067169;28;20506;-68
2021/04/11 07:43:56;;;;;;;2.40;2.20;;;15.80;95.70;;;;;;5061873;28;20423;-66
2021/04/11 07:46:59;;;;;;;2.20;1.60;;;16.20;95.10;;;;;;5068668;28;20971;-67
2021/04/11 07:50:00;;;;;;;2.47;1.93;;;16.70;94.10;;;;;;5068322;28;20811;-68
2021/04/11 07:52:52;;;;;;;2.90;1.93;;;17.20;93.20;;;;;;5069866;28;20455;-67
2021/04/11 07:55:32;;;;;;;1.97;1.87;;;17.30;92.60;;;;;;5054194;28;20431;-68
2021/04/11 07:58:11;;;;;;;2.20;1.90;;;17.40;92.30;;;;;;5066493;28;20435;-68
2021/04/11 08:01:03;;;;;;;2.60;2.40;;;17.80;91.80;;;;;;5060958;28;20856;-67
2021/04/11 08:03:50;;;;;;;1.83;1.73;;;17.90;90.60;;;;;;5057461;28;20463;-67
2021/04/11 08:06:41;;;;;;;2.03;1.70;;;18.10;90.10;;;;;;5069435;28;20489;-67
2021/04/11 08:09:25;;;;;;;3.50;1.90;;;18.20;90.30;;;;;;5056886;28;20995;-67
2021/04/11 08:12:09;;;;;;;2.70;1.63;;;18.20;89.40;;;;;;5061100;28;20478;-67
2021/04/11 08:14:38;;;;;;;1.70;1.60;;;18.30;89.40;;;;;;5052026;28;20436;-72
2021/04/11 08:17:41;;;;;;;4.57;1.87;;;18.40;88.20;;;;;;5048957;28;20835;-73
2021/04/11 08:20:37;;;;;;;1.70;1.60;;;19.00;87.60;;;;;;5052838;28;20495;-73
2021/04/11 08:23:29;;;;;;;2.10;1.60;;;19.30;83.90;;;;;;5065890;28;20443;-74
2021/04/11 08:26:04;;;;;;;1.63;1.30;;;19.90;82.30;;;;;;5068007;28;20461;-74
2021/04/11 08:28:50;;;;;;;2.50;1.40;;;19.90;80.30;;;;;;5057840;28;20435;-74
2021/04/11 08:31:49;;;;;;;3.77;1.73;;;19.60;80.20;;;;;;5049767;28;20455;-75
2021/04/11 08:34:21;;;;;;;2.13;1.83;;;19.70;79.60;;;;;;5053185;28;20435;-74
2021/04/11 08:37:07;;;;;;;2.47;2.27;;;19.80;79.20;;;;;;5056229;28;20807;-74
2021/04/11 08:39:51;;;;;;;6.00;2.20;;;19.80;79.00;;;;;;5066971;28;20432;-74
2021/04/11 08:42:57;;;;;;;2.87;2.67;;;20.00;78.00;;;;;;5050768;28;20559;-74
2021/04/11 08:45:49;;;;;;;2.47;2.27;;;20.20;77.50;;;;;;5070053;28;20426;-74
2021/04/11 08:48:33;;;;;;;2.60;1.70;;;19.90;75.60;;;;;;5035887;28;20459;-74
2021/04/11 08:51:27;;;;;;;2.13;2.03;;;19.40;77.00;;;;;;5062761;28;20460;-74
2021/04/11 08:54:04;;;;;;;2.80;1.50;;;18.90;78.60;;;;;;5051364;28;20805;-74
2021/04/11 08:56:39;;;;;;;2.77;1.60;;;19.20;78.90;;;;;;5064274;28;20501;-74
2021/04/11 08:59:43;;;;;;;3.80;2.03;;;19.20;77.70;;;;;;5054588;28;20440;-74
2021/04/11 09:02:26;;;;;;;1.73;1.63;;;18.90;79.50;;;;;;5060893;28;20562;-74
2021/04/11 09:05:15;;;;;;;1.70;1.60;;;18.70;79.40;;;;;;5050642;28;20431;-75
2021/04/11 09:08:05;;;;;;;2.23;2.07;;;18.70;79.40;;;;;;5035319;28;20468;-75
2021/04/11 09:10:50;;;;;;;3.10;1.80;;;18.40;80.60;;;;;;5064955;28;20988;-74
2021/04/11 09:13:40;;;;;;;5.47;3.03;;;18.50;81.00;;;;;;5059609;28;20436;-74
2021/04/11 09:16:15;;;;;;;3.70;3.40;;;18.50;81.20;;;;;;5048057;28;20447;-73
2021/04/11 09:19:05;;;;;;;1.90;1.80;;;18.70;80.90;;;;;;5064667;28;20817;-74
2021/04/11 09:21:57;;;;;;;2.97;1.90;;;18.50;80.90;;;;;;5055424;28;20447;-73
2021/04/11 09:24:34;;;;;;;4.13;2.23;;;18.40;80.50;;;;;;5068718;28;20843;-73
2021/04/11 09:27:18;;;;;;;2.60;1.90;;;18.30;80.80;;;;;;5051474;28;20508;-73
2021/04/11 09:29:55;;;;;;;5.60;3.13;;;18.40;80.70;;;;;;5048400;28;20470;-72
2021/04/11 09:32:42;;;;;;;3.50;1.60;;;18.90;79.40;;;;;;5064529;28;20450;-72
2021/04/11 09:35:16;;;;;;;2.70;2.50;;;18.90;78.00;;;;;;5065850;28;20959;-75
2021/04/11 09:38:00;;;;;;;3.63;2.87;;;19.10;77.40;;;;;;5050938;28;20944;-72
2021/04/11 09:40:45;;;;;;;2.73;2.53;;;19.70;77.20;;;;;;5063461;28;20443;-72
2021/04/11 09:43:25;;;;;;;6.80;2.50;;;20.40;73.60;;;;;;5070591;28;20427;-72
2021/04/11 09:46:28;;;;;;;2.60;1.90;;;21.10;72.20;;;;;;5070521;28;20850;-74
2021/04/11 09:49:12;;;;;;;3.17;1.83;;;20.90;71.60;;;;;;5070539;28;20461;-72
2021/04/11 09:51:53;;;;;;;3.60;2.03;;;21.40;69.60;;;;;;5070865;28;20449;-72
2021/04/11 09:54:24;;;;;;;4.60;3.50;;;22.10;67.20;;;;;;5070616;28;20410;-73
2021/04/11 09:56:59;;;;;;;11.57;10.13;;;23.20;65.20;;;;;;5070715;28;20412;-73
2021/04/11 09:59:36;;;;;;;2.60;2.40;;;23.60;60.70;;;;;;5070335;28;20532;-73
2021/04/11 10:02:20;;;;;;;12.87;11.70;;;23.60;60.40;;;;;;5070464;28;20450;-72
2021/04/11 10:04:51;;;;;;;5.30;4.80;;;24.00;59.00;;;;;;5061723;28;20423;-72
2021/04/11 10:07:35;;;;;;;5.00;4.30;;;23.80;58.10;;;;;;5065088;28;20495;-73
2021/04/11 10:10:25;;;;;;;2.23;1.77;;;24.70;56.90;;;;;;5049748;28;20428;-72
2021/04/11 10:13:43;;;;;;;3.77;1.80;;;24.80;55.30;;;;;;5052280;28;20502;-72
2021/04/11 10:16:44;;;;;;;2.30;2.10;;;24.00;55.40;;;;;;4988666;28;20493;-73
2021/04/11 10:19:12;;;;;;;2.20;1.97;;;24.20;55.00;;;;;;5049785;28;20419;-73
2021/04/11 10:21:52;;;;;;;1.80;1.70;;;24.20;54.70;;;;;;5052718;28;20436;-73
2021/04/11 10:24:41;;;;;;;2.13;1.93;;;23.90;55.00;;;;;;5067199;28;21149;-73
2021/04/11 10:27:27;;;;;;;2.07;1.80;;;24.00;55.90;;;;;;5067344;28;20458;-73
2021/04/11 10:29:54;;;;;;;2.20;1.67;;;24.20;53.80;;;;;;5070395;28;20480;-73
2021/04/11 10:32:44;;;;;;;2.33;2.17;;;23.10;54.30;;;;;;5060539;28;20447;-72
2021/04/11 10:35:39;;;;;;;3.67;3.37;;;22.10;56.00;;;;;;5060679;28;20928;-72
2021/04/11 10:38:31;;;;;;;4.60;2.43;;;21.30;57.70;;;;;;5058079;28;20437;-72
2021/04/11 10:41:31;;;;;;;2.30;2.10;;;21.10;58.20;;;;;;5072633;28;20453;-73
2021/04/11 10:44:05;;;;;;;2.53;2.33;;;21.00;58.40;;;;;;5057286;28;20431;-73
2021/04/11 10:46:55;;;;;;;2.30;2.10;;;20.70;58.10;;;;;;5066601;28;20856;-72
2021/04/11 10:49:53;;;;;;;7.17;2.73;;;20.50;59.00;;;;;;5053524;28;20439;-73
2021/04/11 10:52:42;;;;;;;2.63;2.20;;;20.10;59.80;;;;;;5059518;28;20454;-73
2021/04/11 10:55:26;;;;;;;2.47;2.27;;;19.80;59.90;;;;;;5061547;28;20925;-73
2021/04/11 10:58:30;;;;;;;2.70;2.40;;;19.70;60.50;;;;;;5054730;28;20979;-73
2021/04/11 11:01:10;;;;;;;3.40;2.37;;;19.50;60.70;;;;;;5072506;28;20473;-73
2021/04/11 11:03:36;;;;;;;2.00;1.80;;;19.40;61.30;;;;;;5054557;28;20432;-72
2021/04/11 11:06:18;;;;;;;3.03;2.83;;;19.30;62.20;;;;;;5059381;28;20488;-72
2021/04/11 11:09:09;;;;;;;2.80;2.53;;;19.20;63.00;;;;;;5081360;28;20208;-72
2021/04/11 11:11:41;;;;;;;2.30;2.10;;;19.30;63.60;;;;;;5069907;28;20819;-72
2021/04/11 11:14:34;;;;;;;2.17;2.07;;;19.20;62.80;;;;;;5059702;28;20442;-72
2021/04/11 11:17:28;;;;;;;2.47;2.23;;;19.30;63.20;;;;;;5065766;28;20424;-72
2021/04/11 11:20:12;;;;;;;3.27;3.07;;;19.40;63.10;;;;;;5056773;28;20435;-72
2021/04/11 11:22:59;;;;;;;3.20;2.60;;;19.50;62.90;;;;;;5062412;28;20435;-72
2021/04/11 11:25:51;;;;;;;4.80;4.30;;;19.80;63.70;;;;;;5059309;28;20509;-73
2021/04/11 11:28:40;;;;;;;4.10;2.70;;;19.90;62.70;;;;;;5063610;28;20466;-73
2021/04/11 11:31:16;;;;;;;4.07;2.30;;;20.50;62.20;;;;;;5072380;28;20608;-73
2021/04/11 11:33:57;;;;;;;6.30;2.23;;;20.60;60.60;;;;;;5052538;28;20494;-73
2021/04/11 11:37:03;;;;;;;3.40;2.77;;;21.10;59.80;;;;;;5056441;28;20531;-73
2021/04/11 11:39:46;;;;;;;3.20;2.43;;;22.30;58.30;;;;;;5069312;28;20490;-73
2021/04/11 11:42:30;;;;;;;3.63;3.27;;;24.60;55.10;;;;;;5052879;28;20455;-73
2021/04/11 11:45:08;;;;;;;2.50;2.30;;;24.50;52.90;;;;;;5065083;28;20474;-73
2021/04/11 11:47:56;;;;;;;2.17;2.07;;;23.30;54.20;;;;;;5056126;28;20664;-73
2021/04/11 11:50:31;;;;;;;2.83;2.10;;;23.10;55.50;;;;;;5070484;28;20431;-73
2021/04/11 11:53:20;;;;;;;2.90;2.40;;;24.50;54.60;;;;;;5072442;28;20422;-73
2021/04/11 11:56:19;;;;;;;4.70;3.00;;;24.90;52.40;;;;;;5062150;28;20496;-73
2021/04/11 11:59:12;;;;;;;2.57;2.37;;;25.20;53.80;;;;;;5053721;28;20428;-73
2021/04/11 12:01:47;;;;;;;2.37;2.17;;;25.60;51.70;;;;;;5065214;22;21007;-66
2021/04/11 12:04:36;;;;;;;2.97;2.17;;;26.40;53.70;;;;;;5052324;28;20423;-66
2021/04/11 12:07:22;;;;;;;2.40;2.20;;;27.60;57.60;;;;;;5052104;28;20609;-66
2021/04/11 12:10:20;;;;;;;1.97;1.80;;;27.40;57.10;;;;;;5051145;28;20485;-66
2021/04/11 12:13:19;;;;;;;2.30;2.10;;;27.80;55.90;;;;;;5018993;28;20818;-65
2021/04/11 12:15:55;;;;;;;2.30;2.07;;;29.50;43.90;;;;;;5028849;28;20933;-67
2021/04/11 12:18:25;;;;;;;3.60;2.73;;;28.50;43.50;;;;;;5032140;28;20435;-66
2021/04/11 12:20:51;;;;;;;3.07;2.57;;;26.20;45.90;;;;;;5031078;28;20535;-67
2021/04/11 12:23:17;;;;;;;2.60;2.40;;;26.20;46.40;;;;;;5032120;28;20520;-66
2021/04/11 12:25:44;;;;;;;3.50;2.03;;;26.10;46.50;;;;;;5030487;28;20174;-67
2021/04/11 12:28:21;;;;;;;2.87;2.40;;;26.20;46.60;;;;;;5030343;28;20206;-67
2021/04/11 12:30:47;;;;;;;3.13;2.27;;;27.60;45.10;;;;;;5031026;28;20444;-66
2021/04/11 12:33:12;;;;;;;3.17;2.40;;;28.10;44.60;;;;;;5031889;28;20458;-67
2021/04/11 12:36:09;;;;;;;3.70;2.50;;;27.30;44.00;;;;;;5031792;28;20178;-68
2021/04/11 12:38:56;;;;;;;2.80;2.60;;;26.00;45.70;;;;;;5031592;28;20182;-66
2021/04/11 12:41:46;;;;;;;4.50;4.10;;;24.50;47.40;;;;;;5030351;28;20525;-67
2021/04/11 12:44:27;;;;;;;2.60;2.40;;;25.00;47.60;;;;;;5031567;28;20440;-66
2021/04/11 12:47:20;;;;;;;3.60;1.87;;;26.50;46.40;;;;;;5031628;28;20503;-67
2021/04/11 12:50:04;;;;;;;2.63;1.70;;;26.00;45.10;;;;;;5030769;28;20421;-67
2021/04/11 12:52:39;;;;;;;3.23;2.40;;;25.40;45.90;;;;;;5031256;28;20475;-67
2021/04/11 12:55:19;;;;;;;2.17;2.07;;;24.40;47.40;;;;;;5031489;28;20427;-66
2021/04/11 12:58:03;;;;;;;2.60;2.40;;;23.10;48.90;;;;;;5031311;28;20428;-65
2021/04/11 13:00:34;;;;;;;2.47;2.27;;;22.50;50.40;;;;;;5017929;28;20428;-66
2021/04/11 13:03:05;;;;;;;2.87;2.67;;;22.00;51.80;;;;;;5029929;28;20441;-65
2021/04/11 13:05:51;;;;;;;2.77;2.50;;;22.10;52.80;;;;;;5031289;28;20968;-67
2021/04/11 13:08:31;;;;;;;3.70;2.30;;;23.40;51.60;;;;;;5031580;28;20467;-67
2021/04/11 13:11:19;;;;;;;3.23;2.80;;;24.60;49.80;;;;;;5030449;28;20492;-67
2021/04/11 13:13:57;;;;;;;3.63;2.47;;;24.50;49.60;;;;;;5030870;28;20868;-67
2021/04/11 13:16:46;;;;;;;1.70;1.60;;;23.80;49.80;;;;;;5031135;28;20515;-66
2021/04/11 13:19:24;;;;;;;4.30;2.70;;;22.80;50.80;;;;;;5029872;28;20429;-67
2021/04/11 13:22:13;;;;;;;3.70;2.50;;;22.20;52.10;;;;;;5030543;28;20448;-67
2021/04/11 13:24:51;;;;;;;3.47;3.10;;;21.70;52.80;;;;;;5030683;28;20441;-67
2021/04/11 13:27:29;;;;;;;2.10;1.40;;;21.60;53.30;;;;;;5031278;28;20456;-67
2021/04/11 13:30:09;;;;;;;1.57;1.47;;;21.60;53.10;;;;;;5030007;28;20447;-67
2021/04/11 13:32:44;;;;;;;5.20;2.60;;;21.40;52.80;;;;;;5030713;28;20453;-67
2021/04/11 13:35:41;;;;;;;2.30;1.93;;;21.50;52.60;;;;;;5030726;28;20455;-66
2021/04/11 13:38:16;;;;;;;6.67;2.10;;;21.50;53.70;;;;;;5007049;28;20425;-67
2021/04/11 13:40:43;;;;;;;2.90;2.70;;;21.50;55.80;;;;;;5030100;28;20431;-67
2021/04/11 13:43:33;;;;;;;4.70;2.33;;;21.40;56.90;;;;;;5030643;28;20420;-67
2021/04/11 13:46:12;;;;;;;2.80;2.53;;;21.20;57.70;;;;;;5030768;28;20429;-66